Time;durP1;ratioP1;P1;durP2;ratioP2;P2;SDS_P1;SDS_P2;PMS_P1;PMS_P2;Temp;Humidity;BMP_temperature;BMP_pressure;BME280_temperature;BME280_humidity;BME280_pressure;Samples;Min_cycle;Max_cycle;Signal;HPM_P1;HPM_P2
2022/12/27 00:00:06;;;;;;;7.07;4.68;;;;;;;7.24;100.00;100229.56;7716783;23;20017;-74
2022/12/27 00:03:07;;;;;;;11.23;6.20;;;;;;;7.21;100.00;100227.13;7687936;23;20012;-73
2022/12/27 00:06:13;;;;;;;16.52;5.80;;;;;;;7.19;100.00;100229.78;7714523;23;20342;-74
2022/12/27 00:09:14;;;;;;;8.75;6.25;;;;;;;7.09;100.00;100215.53;7688221;23;20016;-73
2022/12/27 00:12:17;;;;;;;7.80;5.18;;;;;;;7.14;100.00;100212.72;7687360;23;20023;-74
2022/12/27 00:15:18;;;;;;;8.70;5.53;;;;;;;7.14;100.00;100197.16;7662913;23;20021;-74
2022/12/27 00:18:19;;;;;;;7.75;4.85;;;;;;;7.12;100.00;100199.81;7714421;23;20019;-75
2022/12/27 00:21:21;;;;;;;7.63;4.38;;;;;;;7.12;100.00;100186.84;7714445;23;20323;-74
2022/12/27 00:24:21;;;;;;;9.75;5.47;;;;;;;7.00;100.00;100180.47;7687943;23;20017;-74
2022/12/27 00:27:22;;;;;;;10.88;5.93;;;;;;;6.95;100.00;100181.56;7714342;23;20013;-75
2022/12/27 00:30:25;;;;;;;9.85;6.20;;;;;;;6.89;100.00;100180.06;7714141;23;20023;-75
2022/12/27 00:33:28;;;;;;;11.32;5.88;;;;;;;6.97;100.00;100190.13;7713790;23;20021;-74
2022/12/27 00:36:30;;;;;;;13.25;5.00;;;;;;;7.01;100.00;100189.91;7714527;23;20023;-74
2022/12/27 00:39:31;;;;;;;7.05;4.55;;;;;;;6.99;100.00;100196.91;7687332;23;20147;-74
2022/12/27 00:42:31;;;;;;;6.88;4.75;;;;;;;7.02;100.00;100199.41;7712346;23;20017;-74
2022/12/27 00:45:34;;;;;;;14.13;5.15;;;;;;;7.08;100.00;100208.63;7691448;23;20437;-77
2022/12/27 00:48:36;;;;;;;8.93;5.13;;;;;;;7.08;100.00;100232.00;7717538;23;20020;-77
2022/12/27 00:51:37;;;;;;;8.02;5.22;;;;;;;7.10;100.00;100231.94;7717521;23;20592;-77
2022/12/27 00:54:37;;;;;;;9.00;5.57;;;;;;;7.18;100.00;100235.03;7715998;23;20054;-77
2022/12/27 00:57:38;;;;;;;10.63;5.57;;;;;;;7.21;100.00;100237.50;7715857;23;20013;-77
2022/12/27 01:00:39;;;;;;;8.48;4.90;;;;;;;7.24;100.00;100245.16;7715751;23;20353;-76
2022/12/27 01:03:40;;;;;;;12.93;5.80;;;;;;;7.24;100.00;100238.19;7713399;23;20020;-76
2022/12/27 01:06:41;;;;;;;8.77;6.43;;;;;;;7.26;100.00;100232.94;7717004;23;20028;-77
2022/12/27 01:09:41;;;;;;;13.32;5.47;;;;;;;7.24;100.00;100238.19;7690689;23;20445;-77
2022/12/27 01:12:42;;;;;;;9.32;5.40;;;;;;;7.20;100.00;100234.06;7716652;23;20036;-77
2022/12/27 01:15:43;;;;;;;8.02;4.88;;;;;;;7.14;100.00;100223.94;7716897;23;20016;-76
2022/12/27 01:18:45;;;;;;;10.15;5.75;;;;;;;7.11;100.00;100228.44;7715434;23;20019;-76
2022/12/27 01:21:46;;;;;;;8.07;4.53;;;;;;;7.06;100.00;100234.69;7716517;23;20024;-76
2022/12/27 01:24:49;;;;;;;8.65;4.75;;;;;;;7.17;100.00;100247.19;7689958;23;20333;-76
2022/12/27 01:27:49;;;;;;;8.48;5.57;;;;;;;7.13;100.00;100247.38;7686675;23;20016;-76
2022/12/27 01:30:50;;;;;;;7.88;5.10;;;;;;;7.13;100.00;100255.16;7714104;23;20024;-77
2022/12/27 01:33:56;;;;;;;13.65;5.43;;;;;;;7.21;100.00;100251.31;7713671;23;20016;-77
2022/12/27 01:36:57;;;;;;;8.18;5.53;;;;;;;7.27;100.00;100258.00;7715595;23;20314;-76
2022/12/27 01:39:58;;;;;;;11.02;5.03;;;;;;;7.24;100.00;100261.56;7686482;23;20028;-77
2022/12/27 01:42:58;;;;;;;7.63;5.28;;;;;;;7.19;100.00;100247.13;7715169;23;20448;-77
2022/12/27 01:45:59;;;;;;;9.13;5.95;;;;;;;7.16;100.00;100242.88;7686647;23;20021;-77
2022/12/27 01:49:00;;;;;;;10.45;5.90;;;;;;;7.18;100.00;100254.03;7715397;23;20024;-77
2022/12/27 01:52:01;;;;;;;11.80;5.97;;;;;;;7.17;100.00;100254.97;7711775;23;20016;-76
2022/12/27 01:55:11;;;;;;;9.65;6.28;;;;;;;7.24;100.00;100245.16;7686864;23;20087;-76
2022/12/27 01:58:26;;;;;;;14.85;7.43;;;;;;;7.26;100.00;100240.72;7688061;23;20051;-75
2022/12/27 02:01:36;;;;;;;14.40;7.63;;;;;;;7.27;100.00;100226.84;7713335;23;20100;-76
2022/12/27 02:04:37;;;;;;;13.10;6.72;;;;;;;7.33;100.00;100229.19;7715295;23;20087;-73
2022/12/27 02:08:02;;;;;;;11.43;5.95;;;;;;;7.35;100.00;100221.31;7715315;23;20071;-76
2022/12/27 02:11:05;;;;;;;10.90;6.90;;;;;;;7.38;100.00;100224.59;7713323;23;20019;-73
2022/12/27 02:14:07;;;;;;;16.58;7.93;;;;;;;7.30;100.00;100205.94;7713000;23;20453;-76
2022/12/27 02:17:15;;;;;;;15.02;6.72;;;;;;;7.32;100.00;100205.88;7688228;23;20013;-77
2022/12/27 02:20:23;;;;;;;9.52;5.93;;;;;;;7.25;100.00;100193.19;7711653;23;20421;-76
2022/12/27 02:24:03;;;;;;;14.68;7.50;;;;;;;7.33;100.00;100195.44;7687125;23;20448;-76
2022/12/27 02:27:20;;;;;;;10.88;5.75;;;;;;;7.27;100.00;100187.94;7713139;23;20019;-77
2022/12/27 02:30:21;;;;;;;13.90;7.80;;;;;;;7.11;100.00;100177.38;7687034;23;20023;-77
2022/12/27 02:33:29;;;;;;;14.32;7.32;;;;;;;7.16;100.00;100178.00;7712922;23;20012;-77
2022/12/27 02:36:34;;;;;;;10.23;6.68;;;;;;;7.22;100.00;100187.28;7686600;23;20024;-76
2022/12/27 02:39:40;;;;;;;11.25;7.10;;;;;;;7.20;100.00;100179.53;7715317;23;20024;-79
2022/12/27 02:53:14;;;;;;;15.10;7.67;;;;;;;7.23;100.00;100170.81;7686012;23;20016;-77
2022/12/27 03:03:51;;;;;;;16.20;8.00;;;;;;;7.21;100.00;100173.47;7715349;23;20449;-76
2022/12/27 03:07:29;;;;;;;13.68;6.95;;;;;;;7.15;100.00;100186.72;7716524;23;20016;-77
2022/12/27 03:18:12;;;;;;;13.00;8.23;;;;;;;6.95;100.00;100228.25;7716983;23;20019;-76
2022/12/27 03:35:11;;;;;;;15.27;6.80;;;;;;;6.90;100.00;100233.66;7714897;23;20071;-77
2022/12/27 03:38:12;;;;;;;12.23;7.32;;;;;;;6.85;100.00;100213.06;7689768;23;20013;-77
2022/12/27 03:44:44;;;;;;;12.68;7.55;;;;;;;6.92;100.00;100223.19;7717927;23;20017;-77
2022/12/27 03:47:58;;;;;;;17.13;8.23;;;;;;;6.83;100.00;100222.69;7718396;23;20023;-77
2022/12/27 03:51:03;;;;;;;12.88;7.30;;;;;;;6.84;100.00;100231.31;7687861;23;20017;-77
2022/12/27 03:54:12;;;;;;;14.30;7.65;;;;;;;6.76;100.00;100225.63;7717275;23;20012;-77
2022/12/27 03:57:15;;;;;;;11.80;7.05;;;;;;;6.88;100.00;100234.59;7687767;23;20017;-77
2022/12/27 04:00:17;;;;;;;14.05;7.45;;;;;;;6.78;100.00;100229.00;7688129;23;20099;-77
2022/12/27 04:03:17;;;;;;;13.55;7.15;;;;;;;6.76;100.00;100223.84;7688187;23;20017;-77
2022/12/27 04:06:18;;;;;;;15.20;7.82;;;;;;;6.70;100.00;100236.25;7714449;23;20016;-77
2022/12/27 04:35:54;;;;;;;13.82;7.32;;;;;;;6.45;100.00;100273.56;7716822;23;20016;-78
2022/12/27 04:38:55;;;;;;;10.85;7.07;;;;;;;6.41;100.00;100261.63;7715134;23;20070;-79
2022/12/27 04:55:22;;;;;;;8.60;5.32;;;;;;;6.24;100.00;100260.56;7715172;23;20012;-77
2022/12/27 04:58:24;;;;;;;9.38;5.75;;;;;;;6.20;100.00;100247.78;7688077;23;20485;-77
2022/12/27 05:04:49;;;;;;;9.02;5.35;;;;;;;6.16;100.00;100254.00;7717196;23;20468;-77
2022/12/27 05:14:30;;;;;;;9.38;5.47;;;;;;;6.22;100.00;100251.16;7713852;23;20012;-77
2022/12/27 05:17:31;;;;;;;12.02;6.40;;;;;;;6.13;100.00;100246.31;7686994;23;20023;-77
2022/12/27 05:20:35;;;;;;;9.90;6.20;;;;;;;6.18;100.00;100239.22;7686754;23;20051;-77
2022/12/27 05:26:55;;;;;;;11.75;6.75;;;;;;;6.19;100.00;100213.22;7715796;23;20071;-80
2022/12/27 05:29:56;;;;;;;7.78;4.47;;;;;;;6.14;100.00;100185.84;7689670;23;20625;-79
2022/12/27 05:32:57;;;;;;;10.82;6.28;;;;;;;6.37;100.00;100222.03;7712735;23;20012;-79
2022/12/27 05:35:59;;;;;;;13.27;5.07;;;;;;;6.37;100.00;100247.09;7686907;23;20051;-79
2022/12/27 05:38:59;;;;;;;12.68;5.88;;;;;;;6.33;100.00;100250.72;7686962;23;20012;-79
2022/12/27 05:42:03;;;;;;;12.30;6.03;;;;;;;6.33;100.00;100259.34;7687065;23;20388;-77
2022/12/27 05:45:05;;;;;;;8.63;5.05;;;;;;;6.25;100.00;100251.84;7712278;23;20425;-78
2022/12/27 05:48:06;;;;;;;11.85;6.43;;;;;;;6.38;100.00;100249.63;7711799;23;20036;-78
2022/12/27 05:51:12;;;;;;;7.95;4.50;;;;;;;6.34;100.00;100268.81;7686821;23;20095;-77
2022/12/27 05:54:13;;;;;;;12.38;5.15;;;;;;;6.33;100.00;100269.69;7714182;23;20087;-77
2022/12/27 05:57:14;;;;;;;7.80;4.75;;;;;;;6.35;100.00;100280.00;7686545;23;20417;-78
2022/12/27 06:00:15;;;;;;;8.15;5.18;;;;;;;6.28;100.00;100288.91;7713070;23;20024;-78
2022/12/27 06:03:16;;;;;;;9.98;4.82;;;;;;;6.31;100.00;100291.41;7714337;23;20017;-78
2022/12/27 06:06:17;;;;;;;9.25;5.75;;;;;;;6.28;100.00;100292.38;7712993;23;20511;-78
2022/12/27 06:09:17;;;;;;;8.45;4.80;;;;;;;6.28;100.00;100289.78;7714396;23;20012;-78
2022/12/27 06:12:18;;;;;;;10.80;5.32;;;;;;;6.25;100.00;100287.31;7713844;23;20013;-78
2022/12/27 06:15:19;;;;;;;11.18;5.60;;;;;;;6.33;100.00;100287.00;7714210;23;20016;-78
2022/12/27 06:18:19;;;;;;;8.85;4.65;;;;;;;6.24;100.00;100296.00;7686595;23;20067;-78
2022/12/27 06:21:21;;;;;;;6.30;4.20;;;;;;;6.25;100.00;100297.66;7711731;23;20078;-78
2022/12/27 06:24:21;;;;;;;9.93;5.00;;;;;;;6.30;100.00;100313.03;7713190;23;20355;-78
2022/12/27 06:27:22;;;;;;;5.43;3.38;;;;;;;6.25;100.00;100318.41;7686564;23;20017;-78
2022/12/27 06:30:23;;;;;;;8.52;3.78;;;;;;;6.32;100.00;100319.00;7713631;23;20430;-79
2022/12/27 06:33:24;;;;;;;11.73;5.55;;;;;;;6.34;100.00;100309.41;7715197;23;20036;-79
2022/12/27 06:36:26;;;;;;;13.88;4.38;;;;;;;6.33;100.00;100331.91;7715646;23;20044;-79
2022/12/27 06:39:27;;;;;;;10.25;4.55;;;;;;;6.34;100.00;100340.50;7713887;23;20445;-79
2022/12/27 06:42:29;;;;;;;6.30;4.53;;;;;;;6.31;100.00;100341.47;7715470;23;20020;-79
2022/12/27 06:45:29;;;;;;;8.50;4.90;;;;;;;6.29;100.00;100350.22;7689132;23;20342;-80
2022/12/27 06:48:30;;;;;;;7.70;5.25;;;;;;;6.21;100.00;100350.50;7715302;23;20019;-79
2022/12/27 06:51:32;;;;;;;6.65;4.70;;;;;;;6.29;100.00;100347.63;7715196;23;20020;-79
2022/12/27 06:54:33;;;;;;;7.38;4.53;;;;;;;6.30;100.00;100360.53;7715140;23;20016;-79
2022/12/27 06:57:34;;;;;;;8.05;4.93;;;;;;;6.29;100.00;100348.47;7715035;23;20024;-79
2022/12/27 07:00:36;;;;;;;7.18;4.65;;;;;;;6.31;100.00;100343.25;7688160;23;20449;-79
2022/12/27 07:03:37;;;;;;;9.25;3.80;;;;;;;6.35;100.00;100360.34;7717564;23;20400;-80
2022/12/27 07:06:37;;;;;;;7.15;3.90;;;;;;;6.43;100.00;100366.09;7688456;23;20012;-79
2022/12/27 07:09:38;;;;;;;9.30;4.65;;;;;;;6.51;100.00;100371.81;7687865;23;20035;-79
2022/12/27 07:12:39;;;;;;;9.25;5.22;;;;;;;6.38;100.00;100371.47;7688218;23;20610;-79
2022/12/27 07:15:40;;;;;;;7.68;4.57;;;;;;;6.33;100.00;100385.50;7718539;23;20437;-80
2022/12/27 07:18:41;;;;;;;6.60;3.88;;;;;;;6.25;100.00;100371.06;7717295;23;20012;-80
2022/12/27 07:21:42;;;;;;;5.50;4.03;;;;;;;6.24;100.00;100374.56;7712715;23;20535;-79
2022/12/27 07:24:43;;;;;;;6.72;4.05;;;;;;;6.24;100.00;100377.16;7716482;23;20016;-80
2022/12/27 07:27:46;;;;;;;14.60;5.60;;;;;;;6.22;100.00;100368.59;7687210;23;20051;-82
2022/12/27 07:30:46;;;;;;;6.47;4.18;;;;;;;6.14;100.00;100365.44;7663133;23;20052;-81
2022/12/27 07:33:47;;;;;;;6.40;4.55;;;;;;;6.21;100.00;100376.44;7675522;23;20025;-81
2022/12/27 07:36:50;;;;;;;9.00;4.72;;;;;;;6.21;100.00;100389.38;7716468;23;20024;-80
2022/12/27 07:39:51;;;;;;;8.02;3.75;;;;;;;6.16;100.00;100388.72;7712759;23;20032;-80
2022/12/27 07:42:54;;;;;;;4.18;2.92;;;;;;;5.99;100.00;100387.59;7717796;23;20342;-80
2022/12/27 07:46:02;;;;;;;6.10;4.00;;;;;;;6.33;100.00;100404.47;7715021;23;20096;-80
2022/12/27 07:59:52;;;;;;;8.18;5.35;;;;;;;7.17;100.00;100417.63;6343689;27;20369;-79
2022/12/27 08:15:54;;;;;;;6.75;4.45;;;;;;;7.84;100.00;100455.47;6343220;27;20368;-85
2022/12/27 08:18:56;;;;;;;11.15;4.35;;;;;;;7.87;100.00;100439.75;6318381;28;20492;-80
2022/12/27 08:21:56;;;;;;;6.15;3.42;;;;;;;8.02;100.00;100453.81;6317055;28;20119;-85
2022/12/27 08:25:00;;;;;;;8.02;4.07;;;;;;;8.05;100.00;100432.88;6318190;28;20048;-85
2022/12/27 08:28:10;;;;;;;5.53;3.50;;;;;;;8.33;100.00;100455.91;6316642;28;20491;-85
2022/12/27 08:31:12;;;;;;;5.05;3.45;;;;;;;8.27;100.00;100440.56;6299242;28;20051;-85
2022/12/27 08:34:13;;;;;;;5.15;3.20;;;;;;;8.26;100.00;100449.31;6316708;28;20832;-80
2022/12/27 08:37:14;;;;;;;5.90;3.55;;;;;;;8.47;100.00;100461.34;6316627;28;20068;-80
2022/12/27 08:40:16;;;;;;;7.00;3.22;;;;;;;8.45;100.00;100462.34;6315388;28;20074;-84
2022/12/27 08:43:17;;;;;;;5.90;2.70;;;;;;;8.49;100.00;100478.66;6299726;28;20044;-84
2022/12/27 08:46:18;;;;;;;4.35;2.88;;;;;;;8.63;100.00;100482.31;6316683;28;20040;-85
2022/12/27 08:49:19;;;;;;;3.45;2.40;;;;;;;8.60;100.00;100473.78;6316465;28;20048;-85
2022/12/27 08:52:19;;;;;;;8.32;2.72;;;;;;;8.76;100.00;100486.94;6316213;28;20053;-85
2022/12/27 08:55:20;;;;;;;5.55;3.10;;;;;;;8.80;100.00;100491.09;6324008;28;20043;-83
2022/12/27 08:58:22;;;;;;;4.35;2.22;;;;;;;8.72;100.00;100475.81;6299244;28;20052;-84
2022/12/27 09:01:24;;;;;;;4.85;2.10;;;;;;;8.84;100.00;100470.03;6316228;28;20040;-81
2022/12/27 09:04:27;;;;;;;3.90;2.28;;;;;;;9.11;100.00;100477.47;6317630;28;20054;-85
2022/12/27 09:07:31;;;;;;;3.13;2.22;;;;;;;9.23;100.00;100489.88;6315809;28;20048;-85
2022/12/27 09:10:32;;;;;;;10.20;2.05;;;;;;;9.34;100.00;100501.53;6316810;28;20040;-85
2022/12/27 09:13:32;;;;;;;2.72;1.70;;;;;;;9.43;100.00;100493.25;6314773;28;20132;-85
2022/12/27 09:16:34;;;;;;;3.47;2.33;;;;;;;9.48;100.00;100497.34;6300774;28;20044;-81
2022/12/27 09:19:37;;;;;;;4.28;2.03;;;;;;;9.65;100.00;100490.44;6299032;28;20044;-81
2022/12/27 09:22:38;;;;;;;4.07;2.30;;;;;;;9.51;100.00;100500.69;6298660;28;20043;-80
2022/12/27 09:25:39;;;;;;;3.22;2.15;;;;;;;9.64;100.00;100486.16;6281745;28;20048;-79
2022/12/27 09:28:41;;;;;;;2.67;1.52;;;;;;;9.63;100.00;100487.06;6298285;28;20086;-79
2022/12/27 09:31:42;;;;;;;2.23;1.90;;;;;;;9.77;100.00;100497.63;6299465;28;20044;-79
2022/12/27 09:34:42;;;;;;;4.90;1.52;;;;;;;9.91;100.00;100490.91;6297898;28;20120;-79
2022/12/27 09:37:43;;;;;;;2.00;1.60;;;;;;;9.95;100.00;100489.81;6299438;28;20040;-79
2022/12/27 09:40:54;;;;;;;3.42;1.83;;;;;;;10.00;100.00;100488.63;6299430;28;20090;-84
2022/12/27 09:44:00;;;;;;;1.63;1.48;;;;;;;10.01;100.00;100490.34;6299495;28;20044;-84
2022/12/27 09:47:05;;;;;;;4.68;2.03;;;;;;;10.20;100.00;100500.66;6297855;28;20062;-84
2022/12/27 09:50:12;;;;;;;3.65;2.17;;;;;;;10.20;100.00;100505.88;6280689;28;20086;-84
2022/12/27 09:53:23;;;;;;;1.48;1.15;;;;;;;10.37;100.00;100507.59;6298753;28;20045;-79
2022/12/27 09:56:27;;;;;;;2.97;1.83;;;;;;;10.33;100.00;100506.09;6297933;28;20032;-79
2022/12/27 09:59:55;;;;;;;2.88;1.50;;;;;;;10.37;100.00;100505.00;6299168;28;20048;-78
2022/12/27 10:02:58;;;;;;;2.13;1.67;;;;;;;10.65;98.60;100516.59;6297688;28;20044;-79
2022/12/27 10:06:11;;;;;;;2.13;1.33;;;;;;;10.67;96.48;100514.75;6297563;28;20503;-78
2022/12/27 10:09:24;;;;;;;2.00;1.52;;;;;;;10.72;97.02;100512.72;6314457;28;20490;-83
2022/12/27 10:12:39;;;;;;;1.15;0.98;;;;;;;10.78;98.40;100522.81;6298508;28;20116;-84
2022/12/27 10:15:59;;;;;;;2.38;1.33;;;;;;;10.84;95.98;100522.47;6298497;28;20048;-85
2022/12/27 10:19:14;;;;;;;2.53;1.58;;;;;;;10.80;94.66;100526.19;6311481;28;20060;-85
2022/12/27 10:22:28;;;;;;;1.90;1.10;;;;;;;10.70;95.15;100527.59;6282359;28;20115;-80
2022/12/27 10:25:30;;;;;;;2.20;1.45;;;;;;;10.83;92.54;100519.94;6299243;28;20052;-79
2022/12/27 10:28:37;;;;;;;3.28;1.50;;;;;;;10.79;90.04;100521.91;6279900;28;20055;-80
2022/12/27 10:31:41;;;;;;;2.70;1.55;;;;;;;11.09;87.47;100519.34;6299193;28;20045;-79
2022/12/27 10:34:42;;;;;;;2.58;1.00;;;;;;;11.28;83.31;100516.56;6280992;28;20068;-80
2022/12/27 10:37:44;;;;;;;2.33;1.33;;;;;;;11.12;82.78;100512.28;6298884;28;20040;-79
2022/12/27 10:41:00;;;;;;;1.45;1.05;;;;;;;11.02;83.42;100515.41;6297551;28;20044;-79
2022/12/27 10:44:01;;;;;;;3.17;1.30;;;;;;;10.92;83.61;100519.47;6297334;28;20048;-79
2022/12/27 10:47:04;;;;;;;1.33;0.98;;;;;;;11.12;83.80;100513.13;6297516;28;20090;-81
2022/12/27 10:50:13;;;;;;;3.08;1.90;;;;;;;11.46;82.95;100519.06;6298421;28;20040;-81
2022/12/27 10:53:39;;;;;;;2.60;1.52;;;;;;;11.42;83.04;100535.84;6297362;28;20423;-82
2022/12/27 11:07:42;;;;;;;2.05;1.30;;;;;;;11.35;75.79;100535.34;6286844;28;20387;-76
2022/12/27 11:10:43;;;;;;;1.55;1.27;;;;;;;11.39;77.10;100528.19;6290220;28;20479;-76
2022/12/27 11:13:44;;;;;;;1.92;0.90;;;;;;;11.35;74.32;100540.56;6275235;28;20055;-77
2022/12/27 11:16:47;;;;;;;1.52;1.17;;;;;;;11.37;75.64;100536.09;6311355;28;20556;-76
2022/12/27 11:19:48;;;;;;;1.63;1.15;;;;;;;11.26;72.42;100535.84;6273708;28;20052;-76
2022/12/27 11:22:57;;;;;;;2.90;0.95;;;;;;;11.52;72.39;100554.47;6247864;28;20045;-76
2022/12/27 11:26:03;;;;;;;1.90;1.23;;;;;;;11.44;71.54;100544.44;6266809;28;20163;-76
2022/12/27 11:29:05;;;;;;;1.30;1.15;;;;;;;11.72;72.29;100561.16;6268154;28;20045;-77
2022/12/27 11:32:07;;;;;;;2.03;1.00;;;;;;;11.27;71.75;100561.91;6267723;28;20175;-76
2022/12/27 11:35:17;;;;;;;1.35;1.15;;;;;;;10.94;70.46;100567.22;6266689;28;20129;-76
2022/12/27 11:38:27;;;;;;;1.88;0.73;;;;;;;10.58;64.96;100575.22;6300087;28;20037;-76
2022/12/27 11:41:44;;;;;;;1.23;0.60;;;;;;;10.46;65.02;100577.56;6267784;28;20060;-76
2022/12/27 11:45:03;;;;;;;0.93;0.70;;;;;;;10.41;62.45;100581.34;6271493;28;20496;-76
2022/12/27 11:48:24;;;;;;;0.85;0.73;;;;;;;11.02;62.85;100569.41;6268500;28;20473;-77
2022/12/27 11:51:53;;;;;;;1.17;0.70;;;;;;;11.05;58.88;100574.44;6267477;28;20033;-76
2022/12/27 11:55:08;;;;;;;1.25;1.00;;;;;;;11.45;59.99;100588.78;6275809;28;20045;-75
2022/12/27 11:58:12;;;;;;;1.55;1.05;;;;;;;10.98;59.41;100597.44;6278839;28;20047;-74
2022/12/27 12:01:26;;;;;;;1.25;1.00;;;;;;;11.38;63.25;100604.88;6270214;28;20116;-74
2022/12/27 12:04:36;;;;;;;0.65;0.40;;;;;;;11.28;64.75;100602.78;6265985;28;20401;-74
2022/12/27 12:07:51;;;;;;;2.05;1.10;;;;;;;11.23;64.87;100614.41;6255902;28;20049;-74
2022/12/27 12:11:12;;;;;;;1.05;0.75;;;;;;;11.25;66.12;100618.59;6249278;28;20053;-74
2022/12/27 12:14:31;;;;;;;0.77;0.70;;;;;;;11.16;67.63;100626.09;6246309;28;20061;-74
2022/12/27 12:17:59;;;;;;;2.88;0.93;;;;;;;11.32;69.11;100628.72;6243637;28;20053;-75
2022/12/27 12:21:33;;;;;;;1.58;1.25;;;;;;;11.57;68.77;100639.53;6226470;28;20549;-75
2022/12/27 12:25:00;;;;;;;2.05;1.38;;;;;;;11.27;66.29;100640.25;6248273;28;20042;-75
2022/12/27 12:28:25;;;;;;;2.83;1.50;;;;;;;11.29;66.95;100642.81;6249957;28;20084;-75
2022/12/27 12:31:32;;;;;;;2.28;1.20;;;;;;;11.26;67.24;100633.38;6249544;28;20045;-75
2022/12/27 12:35:06;;;;;;;3.03;1.58;;;;;;;11.16;68.77;100639.16;6249434;28;20038;-75
2022/12/27 12:38:15;;;;;;;1.40;0.95;;;;;;;11.13;69.89;100637.56;6232034;28;20564;-75
2022/12/27 12:41:28;;;;;;;1.98;1.08;;;;;;;10.80;69.77;100646.25;6228380;28;20045;-75
2022/12/27 12:44:57;;;;;;;1.02;0.90;;;;;;;10.97;69.08;100652.38;6264527;28;20053;-75
2022/12/27 12:48:23;;;;;;;2.53;1.17;;;;;;;10.91;70.05;100653.53;6248043;28;20049;-74
2022/12/27 12:51:46;;;;;;;3.67;1.73;;;;;;;10.97;69.97;100662.81;6248988;28;20554;-75
2022/12/27 12:55:05;;;;;;;;;;;;;;;11.01;70.10;100669.56;6249488;28;20044;-78
2022/12/27 12:58:42;;;;;;;3.95;2.15;;;;;;;11.03;70.83;100673.75;6248025;28;20419;-78
2022/12/27 13:02:21;;;;;;;2.90;1.48;;;;;;;10.88;68.34;100678.03;6248061;28;20057;-78
2022/12/27 13:06:03;;;;;;;1.98;1.27;;;;;;;10.95;68.86;100682.94;6229223;28;20068;-76
2022/12/27 13:09:20;;;;;;;1.65;1.02;;;;;;;10.93;66.42;100680.41;6230082;28;20501;-75
2022/12/27 13:12:21;;;;;;;3.53;1.95;;;;;;;11.07;67.23;100680.50;6248720;28;20065;-75
2022/12/27 13:15:52;;;;;;;1.90;1.33;;;;;;;11.14;65.14;100682.78;6248493;28;20044;-78
2022/12/27 13:19:14;;;;;;;9.02;2.70;;;;;;;10.83;72.04;100684.41;6247280;28;20041;-75
2022/12/27 13:22:26;;;;;;;3.87;2.60;;;;;;;10.38;76.30;100691.06;6247232;28;20037;-75
2022/12/27 13:25:44;;;;;;;4.35;2.85;;;;;;;10.27;77.01;100699.38;6243664;28;20289;-74
2022/12/27 13:28:59;;;;;;;5.53;2.95;;;;;;;10.19;78.31;100709.34;6249543;28;20037;-75
2022/12/27 13:32:12;;;;;;;3.55;2.03;;;;;;;9.74;81.53;100711.50;6230546;28;20077;-75
2022/12/27 13:35:50;;;;;;;4.60;2.97;;;;;;;9.69;80.28;100713.47;6266164;28;20396;-75
2022/12/27 13:39:23;;;;;;;4.60;2.20;;;;;;;9.52;84.20;100718.63;6224463;28;20064;-75
2022/12/27 13:42:43;;;;;;;5.18;2.58;;;;;;;9.38;83.97;100721.84;6223147;28;20143;-75
2022/12/27 13:46:12;;;;;;;4.43;2.28;;;;;;;9.19;85.01;100729.66;6226252;28;20470;-75
2022/12/27 13:49:31;;;;;;;5.93;3.72;;;;;;;9.17;84.41;100742.72;6250520;28;20052;-75
2022/12/27 13:53:09;;;;;;;6.55;4.13;;;;;;;9.10;86.06;100738.72;6254641;28;20048;-75
2022/12/27 13:56:29;;;;;;;9.05;3.83;;;;;;;9.02;88.49;100740.81;6270965;28;20061;-76
2022/12/27 13:59:51;;;;;;;5.90;3.38;;;;;;;9.12;89.16;100744.72;6230880;28;20432;-77
2022/12/27 14:03:14;;;;;;;8.27;3.95;;;;;;;9.14;87.53;100742.00;6255227;28;20055;-78
2022/12/27 14:06:36;;;;;;;4.55;3.38;;;;;;;9.08;87.25;100735.34;6245910;28;20512;-77
2022/12/27 14:09:58;;;;;;;6.30;3.58;;;;;;;8.91;89.80;100756.88;6252028;28;20049;-77
2022/12/27 14:13:00;;;;;;;7.95;3.97;;;;;;;8.57;89.68;100762.66;6245523;28;20222;-78
2022/12/27 14:16:27;;;;;;;7.05;3.63;;;;;;;8.33;91.42;100772.28;6244218;28;20042;-77
2022/12/27 14:19:46;;;;;;;6.03;3.13;;;;;;;8.17;91.61;100765.06;6253183;28;20057;-77
2022/12/27 14:23:03;;;;;;;5.40;2.80;;;;;;;8.06;92.74;100767.25;6228093;28;20110;-78
2022/12/27 14:26:19;;;;;;;6.63;3.92;;;;;;;7.91;93.73;100781.69;6245400;28;20136;-78
2022/12/27 14:29:25;;;;;;;5.30;3.13;;;;;;;7.83;93.93;100799.34;6246128;28;20045;-78
2022/12/27 14:33:14;;;;;;;5.13;2.85;;;;;;;7.64;95.03;100804.38;6228283;28;20053;-74
2022/12/27 14:36:37;;;;;;;5.85;2.47;;;;;;;7.66;93.99;100811.19;6236222;28;20045;-75
2022/12/27 14:39:41;;;;;;;;;;;;;;;7.56;95.11;100819.38;6242785;28;20045;-77
2022/12/27 14:43:15;;;;;;;9.82;2.95;;;;;;;7.53;95.06;100832.47;6226628;28;19943;-78
2022/12/27 14:46:44;;;;;;;5.25;3.38;;;;;;;7.54;95.35;100828.97;6247288;28;20069;-77
2022/12/27 14:50:15;;;;;;;6.78;4.03;;;;;;;7.44;95.97;100849.22;6278494;28;20107;-74
2022/12/27 14:53:37;;;;;;;5.13;3.05;;;;;;;7.31;97.13;100843.63;6195774;28;20084;-77
2022/12/27 14:57:01;;;;;;;10.05;4.68;;;;;;;7.29;97.43;100854.94;6244970;28;20042;-78
2022/12/27 15:00:11;;;;;;;9.75;4.47;;;;;;;7.23;96.71;100854.28;6278292;28;20421;-74
2022/12/27 15:03:29;;;;;;;5.72;3.78;;;;;;;7.09;97.19;100864.28;6244993;28;20057;-75
2022/12/27 15:06:38;;;;;;;5.63;3.95;;;;;;;7.14;97.44;100875.34;6246018;28;20061;-75
2022/12/27 15:09:54;;;;;;;5.90;3.58;;;;;;;7.07;97.04;100881.63;6244858;28;20554;-75
2022/12/27 15:12:57;;;;;;;5.47;3.33;;;;;;;6.95;96.59;100884.63;6245724;28;20042;-74
2022/12/27 15:16:10;;;;;;;8.00;3.40;;;;;;;6.98;95.80;100890.59;6244489;28;20382;-75
2022/12/27 15:19:14;;;;;;;;;;;;;;;6.97;95.89;100886.28;6245662;28;20042;-74
2022/12/27 15:22:33;;;;;;;4.72;3.28;;;;;;;6.97;94.85;100901.84;6245438;28;19952;-75
2022/12/27 15:25:45;;;;;;;4.90;3.03;;;;;;;6.92;94.92;100910.66;6243600;28;20045;-75
2022/12/27 15:29:10;;;;;;;9.27;4.32;;;;;;;6.88;94.53;100907.34;6260973;28;20053;-74
2022/12/27 15:32:40;;;;;;;8.80;5.40;;;;;;;6.86;94.82;100903.94;6227777;28;20552;-74
2022/12/27 15:35:56;;;;;;;12.90;6.07;;;;;;;6.73;94.64;100913.84;6244248;28;20038;-75
2022/12/27 15:38:58;;;;;;;13.40;6.78;;;;;;;6.66;95.51;100900.22;6277609;28;20140;-75
2022/12/27 15:42:04;;;;;;;11.75;6.43;;;;;;;6.62;95.64;100919.38;6253006;28;20447;-75
2022/12/27 15:45:11;;;;;;;15.00;7.85;;;;;;;6.54;96.70;100920.50;6273989;28;20045;-77
2022/12/27 15:48:57;;;;;;;13.40;7.03;;;;;;;6.49;97.76;100932.78;6256876;28;20122;-77
2022/12/27 15:52:19;;;;;;;13.98;6.93;;;;;;;6.49;99.35;100925.00;6273841;28;20047;-78
2022/12/27 15:55:32;;;;;;;10.90;7.10;;;;;;;6.44;99.32;100926.00;6255584;28;20103;-78
2022/12/27 15:58:36;;;;;;;19.48;11.35;;;;;;;6.37;97.77;100928.78;6273411;28;20496;-77
2022/12/27 16:01:37;;;;;;;17.42;10.52;;;;;;;6.22;97.17;100936.13;6273116;28;20041;-77
2022/12/27 16:04:46;;;;;;;13.40;8.57;;;;;;;5.97;97.71;100942.88;6256297;28;20053;-77
2022/12/27 16:08:11;;;;;;;14.82;8.43;;;;;;;5.92;96.40;100947.31;6306777;28;20053;-77
2022/12/27 16:11:13;;;;;;;34.30;13.07;;;;;;;5.83;97.51;100944.09;6238115;28;20527;-78
2022/12/27 16:14:28;;;;;;;38.25;14.52;;;;;;;5.72;97.04;100950.44;6263417;28;20061;-78
2022/12/27 16:17:52;;;;;;;21.85;10.73;;;;;;;5.61;94.51;100959.34;6264508;28;20475;-77
2022/12/27 16:20:57;;;;;;;25.35;10.50;;;;;;;5.70;96.36;100976.38;6248031;28;20099;-77
2022/12/27 16:24:22;;;;;;;19.92;10.43;;;;;;;5.66;95.52;100979.94;6231338;28;20053;-77
2022/12/27 16:27:31;;;;;;;21.42;10.15;;;;;;;5.64;96.52;100986.88;6247737;28;20068;-78
2022/12/27 16:30:40;;;;;;;20.40;9.20;;;;;;;5.65;97.14;100991.19;6248283;28;20041;-77
2022/12/27 16:33:41;;;;;;;25.35;14.32;;;;;;;5.54;97.53;100999.22;6231503;28;20510;-77
2022/12/27 16:36:44;;;;;;;33.53;17.20;;;;;;;5.53;97.85;101005.28;6248189;28;20115;-77
2022/12/27 16:40:18;;;;;;;26.23;14.23;;;;;;;5.40;97.36;101020.28;6245583;28;20468;-75
2022/12/27 16:43:19;;;;;;;26.77;14.55;;;;;;;5.35;98.25;101021.25;6246354;28;20462;-75
2022/12/27 16:46:44;;;;;;;26.85;13.77;;;;;;;5.31;100.00;101011.88;6247527;28;20060;-75